Noyes, MN (56740)

8:20 AM CDT on August 28, 2015 (GMT -0500)
Hallock Municipal | | Change Station
CLOSE
Current Station
Airport
Location: Hallock,
Elevation: 820 ft
Nearby Weather Stations

Elev 820 ft 48.75 °N, 96.94 °W | Updated 6 minutes ago

Partly Cloudy
Partly Cloudy
64 °F
Feels Like 64 °F
N
5
Wind Variable Wind from SSE

Today
High -- | Low -- °F
--% Chance of Precip.
Yesterday
High -- | Low -- °F
Precip. -- in
6:39 AM 8:19 PM
Waxing Gibbous, 98% visible
Pressure 29.84 in
Visibility 10.0 miles
Clouds Clear
Dew Point 63 °F
Humidity 94%
Rainfall 0.00 in
Snow Depth Not available.
UV 1 out of 12
Pollen 9.90 out of 12
Air Quality Not available.
Flu Activity Not available.
METAR KHCO 281314Z AUTO 16004KT 10SM CLR 18/17 A2984 RMK AO2 LTG DSNT NW
Pressure 29.84 in
Visibility 10.0 miles
Clouds Clear
Dew Point 63 °F
Humidity 94%
Rainfall 0.00 in
Snow Depth Not available.
UV 1 out of 12
Pollen 9.90 out of 12
Air Quality Not available.
Flu Activity Not available.
METAR KHCO 281314Z AUTO 16004KT 10SM CLR 18/17 A2984 RMK AO2 LTG DSNT NW
Nowcast | as of 7:50 am CDT on August 28, 2015

At 750 am CDT...Doppler radar indicated a strong to severe thunderstorm...20 miles north of Walhalla...or 37 miles northeast of Langdon moving southeast at 30 mph. This storm should cross into the United States between Neche and Pembina by 830 am CDT... and to Hallock by 9 am. This storm has a history of producing large hail in southern Manitoba... and may continue into the U.S as strong to severe storm. Locations impacted include... Hallock...Pembina...Neche...Lancaster...St. Vincent...Hamilton and Humboldt. Also includes Interstate 29 between mile markers 193 and 217.

×

10-Day Weather Forecast

×

Almanac

Astronomy

Aug. 28, 2015 Rise Set
Actual Time
Civil Twilight
Nautical Twilight
Astronomical Twilight
Moon
Length of Visible Light
Length of Day
Tomorrow will be .
, % of the Moon is Illuminated

Today's Extremes

State Highs State Lows

Community

WunderPhotos

Upload Photos

1,850,375 photos uploaded!

WunderBlogs® & News

Nearby

Air Quality

  Air Quality AQ Index Pollutant
Not available.

Snow Depth

Station Depth Elevation

Earthquake Activity

City Distance Mag. Time & Date
Minimum magnitude displayed is 2.5.

Coastal Water Temperatures

Place Temperature

Stations

Nearby Weather Stations

Station Location Temp. Windchill Dew Point Humidity Wind Precip. Elev Updated Type